Grace City, North Dakota
Current Conditions -  °F | °C
As of 7:55 AM on Monday 24 Nov 2014 (Local Time) from K46D Reporting Station
Clear Clear  
Wind Chill: -13°   Ceiling: Unl
Heat Index:   Visibility: 10mi
Dew Point:   Wind: 21mph
Humidity: 85%   Direction: 320°NW
Pressure: 29.77"   Gusts: 29mph
Location:  47.55°N, 98.81°W
Report Text: K46D 241355Z AUTO 32018G25KT 10SM CLR M14/M16 A2977 RMK AO2
Loading
Personal Weather Stations






























Interactive Weather Map New forecast layout! Learn more

10-Day Weather Forecast

Advertisements
Track Severe Weather on mobile